| time (UTC) | temp C | wind direction | speed KPH | gust KPH | rain 1hr cm | rain 24hr cm | rain mn cm | humidity % | barometer mb |
| 20260508004528 | 12 | 290 | 1.6 | 1.6 | 0.00 | 0.00 | 0.00 | 82 | 1013.8 |
| 20260508004029 | 12 | 296 | 1.6 | 1.6 | 0.00 | 0.00 | 0.00 | 82 | 1013.8 |
| 20260508003528 | 12 | 315 | 1.6 | 1.6 | 0.00 | 0.00 | 0.00 | 82 | 1013.8 |
| 20260508002531 | 12 | 310 | 1.6 | 1.6 | 0.00 | 0.00 | 0.00 | 82 | 1014.0 |
| 20260508001528 | 12 | 248 | 1.6 | 1.6 | 0.00 | 0.00 | 0.00 | 82 | 1014.0 |
| 20260508001038 | 12 | 269 | 0.0 | 1.6 | 0.00 | 0.00 | 0.00 | 82 | 1014.1 |
| 20260508000528 | 13 | 304 | 0.0 | 0.0 | 0.00 | 0.00 | 0.00 | 81 | 1014.2 |
| 20260508000029 | 13 | 296 | 85.3 | 109.4 | 0.00 | 0.00 | 0.00 | 81 | 1014.2 |
| 20260507235528 | 13 | 316 | 109.4 | 109.4 | 0.00 | 0.00 | 0.00 | 81 | 1014.2 |
| 20260507235030 | 13 | 324 | 107.8 | 109.4 | 0.00 | 0.00 | 0.00 | 82 | 1014.2 |
| 20260507234527 | 13 | 316 | 109.4 | 109.4 | 0.00 | 0.00 | 0.00 | 82 | 1014.2 |
| 20260507234030 | 13 | 301 | 20.9 | 20.9 | 0.00 | 0.00 | 0.00 | 82 | 1014.2 |
| 20260507233029 | 13 | 270 | 109.4 | 177.0 | 0.00 | 0.00 | 0.00 | 82 | 1014.2 |
| 20260507232528 | 13 | 270 | 14.5 | 109.4 | 0.00 | 0.00 | 0.00 | 81 | 1014.1 |
| 20260507232030 | 13 | 316 | 109.4 | 109.4 | 0.00 | 0.00 | 0.00 | 81 | 1014.2 |
| 20260507231528 | 13 | 311 | 140.0 | 177.0 | 0.00 | 0.00 | 0.00 | 81 | 1014.2 |
| 20260507231030 | 13 | 303 | 109.4 | 109.4 | 0.00 | 0.00 | 0.00 | 81 | 1014.3 |
| 20260507230529 | 13 | 317 | 62.8 | 177.0 | 0.00 | 0.00 | 0.00 | 81 | 1014.3 |
| 20260507225528 | 13 | 292 | 117.5 | 177.0 | 0.00 | 0.00 | 0.00 | 81 | 1014.4 |
| 20260507225029 | 13 | 317 | 51.5 | 177.0 | 0.00 | 0.00 | 0.00 | 81 | 1014.4 |
| 20260507224528 | 13 | 316 | 14.5 | 20.9 | 0.00 | 0.00 | 0.00 | 81 | 1014.3 |
| 20260507224029 | 13 | 316 | 0.0 | 0.0 | 0.00 | 0.00 | 0.00 | 81 | 1014.3 |
| 20260507223528 | 13 | 225 | 17.7 | 41.8 | 0.00 | 0.00 | 0.00 | 81 | 1014.2 |
| 20260507223029 | 13 | 255 | 9.7 | 41.8 | 0.00 | 0.00 | 0.00 | 81 | 1014.1 |
| 20260507222529 | 13 | 333 | 1.6 | 41.8 | 0.00 | 0.00 | 0.00 | 80 | 1014.0 |
| 20260507222029 | 14 | 248 | 4.8 | 41.8 | 0.00 | 0.00 | 0.00 | 80 | 1014.0 |
| 20260507221528 | 14 | 285 | 1.6 | 1.6 | 0.00 | 0.00 | 0.00 | 80 | 1013.9 |
| 20260507221031 | 14 | 202 | 0.0 | 1.6 | 0.00 | 0.00 | 0.00 | 80 | 1014.0 |
| 20260507220527 | 14 | 257 | 3.2 | 41.8 | 0.00 | 0.00 | 0.00 | 80 | 1014.0 |
| 20260507215537 | 14 | 238 | 1.6 | 4.8 | 0.00 | 0.00 | 0.00 | 79 | 1014.0 |
| 20260507214531 | 15 | 202 | 1.6 | 3.2 | 0.00 | 0.00 | 0.00 | 79 | 1013.9 |
| 20260507213528 | 15 | 210 | 3.2 | 4.8 | 0.00 | 0.00 | 0.00 | 78 | 1013.9 |
| 20260507213029 | 15 | 190 | 3.2 | 4.8 | 0.00 | 0.00 | 0.00 | 78 | 1013.9 |
| 20260507212528 | 15 | 191 | 3.2 | 4.8 | 0.00 | 0.00 | 0.00 | 78 | 1013.8 |
| 20260507212030 | 15 | 180 | 4.8 | 8.0 | 0.00 | 0.00 | 0.00 | 78 | 1013.8 |
| 20260507211528 | 15 | 158 | 1.6 | 1.6 | 0.00 | 0.00 | 0.00 | 77 | 1013.8 |
| 20260507211030 | 15 | 153 | 0.0 | 0.0 | 0.00 | 0.00 | 0.00 | 77 | 1013.7 |
| 20260507210029 | 16 | 135 | 0.0 | 0.0 | 0.00 | 0.00 | 0.00 | 77 | 1013.8 |
| 20260507205030 | 16 | 114 | 0.0 | 0.0 | 0.00 | 0.00 | 0.00 | 76 | 1013.9 |
| 20260507204530 | 16 | 128 | 3.2 | 3.2 | 0.00 | 0.00 | 0.00 | 76 | 1013.9 |
| 20260507204029 | 16 | 135 | 1.6 | 1.6 | 0.00 | 0.00 | 0.00 | 76 | 1013.9 |
| 20260507203031 | 16 | 96 | 0.0 | 0.0 | 0.00 | 0.00 | 0.00 | 75 | 1014.1 |
| 20260507201031 | 16 | 22 | 0.0 | 1.6 | 0.00 | 0.00 | 0.00 | 75 | 1014.1 |
| 20260507200529 | 16 | 22 | 0.0 | 0.0 | 0.00 | 0.00 | 0.00 | 75 | 1014.2 |
| 20260507195030 | 16 | 90 | 0.0 | 0.0 | 0.00 | 0.00 | 0.00 | 75 | 1014.2 |
| 20260507194030 | 16 | 90 | 0.0 | 3.2 | 0.00 | 0.00 | 0.00 | 75 | 1014.2 |
| 20260507193529 | 16 | 85 | 0.0 | 1.6 | 0.00 | 0.00 | 0.00 | 75 | 1014.1 |
| 20260507192537 | 17 | 94 | 1.6 | 1.6 | 0.00 | 0.00 | 0.00 | 74 | 1013.9 |
| 20260507192031 | 17 | 77 | 3.2 | 4.8 | 0.00 | 0.00 | 0.00 | 74 | 1013.8 |
| 20260507191529 | 17 | 51 | 1.6 | 4.8 | 0.00 | 0.00 | 0.00 | 74 | 1013.8 |
| 20260507190528 | 17 | 50 | 0.0 | 3.2 | 0.00 | 0.00 | 0.00 | 74 | 1013.8 |
| 20260507185528 | 17 | 90 | 1.6 | 3.2 | 0.00 | 0.00 | 0.00 | 74 | 1013.8 |
| 20260507185030 | 17 | 92 | 1.6 | 3.2 | 0.00 | 0.00 | 0.00 | 74 | 1013.8 |
| 20260507184528 | 17 | 90 | 1.6 | 3.2 | 0.00 | 0.00 | 0.00 | 74 | 1013.7 |
| 20260507183528 | 17 | 60 | 0.0 | 0.0 | 0.00 | 0.00 | 0.00 | 73 | 1013.6 |
| 20260507182528 | 17 | 85 | 1.6 | 4.8 | 0.00 | 0.00 | 0.00 | 73 | 1013.6 |
| 20260507182031 | 18 | 90 | 1.6 | 4.8 | 0.00 | 0.00 | 0.00 | 73 | 1013.7 |
| 20260507181039 | 18 | 91 | 6.4 | 9.7 | 0.00 | 0.00 | 0.00 | 74 | 1013.4 |
| 20260507180528 | 18 | 104 | 6.4 | 9.7 | 0.00 | 0.00 | 0.00 | 74 | 1013.3 |
| 20260507180030 | 18 | 105 | 3.2 | 14.5 | 0.00 | 0.00 | 0.00 | 74 | 1013.3 |
| 20260507175528 | 18 | 91 | 9.7 | 14.5 | 0.00 | 0.00 | 0.00 | 74 | 1013.3 |
| 20260507175030 | 18 | 116 | 4.8 | 11.3 | 0.00 | 0.00 | 0.00 | 74 | 1013.1 |
| 20260507172529 | 18 | 105 | 4.8 | 14.5 | 0.00 | 0.00 | 0.00 | 71 | 1012.9 |
| 20260507172030 | 18 | 124 | 11.3 | 14.5 | 0.00 | 0.00 | 0.00 | 71 | 1012.9 |
| 20260507171528 | 18 | 96 | 8.0 | 12.9 | 0.00 | 0.00 | 0.00 | 70 | 1012.8 |
| 20260507171029 | 18 | 94 | 11.3 | 22.5 | 0.00 | 0.00 | 0.00 | 69 | 1012.9 |
| 20260507170538 | 19 | 85 | 11.3 | 22.5 | 0.00 | 0.00 | 0.00 | 68 | 1012.8 |
| 20260507170030 | 19 | 90 | 9.7 | 14.5 | 0.00 | 0.00 | 0.00 | 68 | 1012.7 |
| 20260507165533 | 19 | 92 | 8.0 | 14.5 | 0.00 | 0.00 | 0.00 | 67 | 1012.9 |
| 20260507164537 | 19 | 92 | 8.0 | 11.3 | 0.00 | 0.00 | 0.00 | 65 | 1013.0 |
| 20260507163528 | 19 | 104 | 4.8 | 14.5 | 0.00 | 0.00 | 0.00 | 63 | 1012.8 |
| 20260507163042 | 19 | 96 | 11.3 | 16.1 | 0.00 | 0.00 | 0.00 | 63 | 1013.0 |
| 20260507162033 | 19 | 92 | 9.7 | 14.5 | 0.00 | 0.00 | 0.00 | 62 | 1012.9 |
| 20260507161035 | 20 | 90 | 8.0 | 19.3 | 0.00 | 0.00 | 0.00 | 60 | 1013.0 |
| 20260507154030 | 20 | 65 | 9.7 | 14.5 | 0.00 | 0.00 | 0.00 | 57 | 1013.1 |
| 20260507153029 | 20 | 36 | 14.5 | 19.3 | 0.00 | 0.00 | 0.00 | 57 | 1013.2 |
| 20260507152529 | 20 | 42 | 9.7 | 14.5 | 0.00 | 0.00 | 0.00 | 58 | 1013.1 |
| 20260507152030 | 20 | 63 | 8.0 | 19.3 | 0.00 | 0.00 | 0.00 | 58 | 1013.2 |
| 20260507151530 | 20 | 89 | 8.0 | 14.5 | 0.00 | 0.00 | 0.00 | 58 | 1013.3 |
| 20260507151031 | 20 | 112 | 6.4 | 14.5 | 0.00 | 0.00 | 0.00 | 59 | 1013.1 |
| 20260507150528 | 20 | 45 | 14.5 | 22.5 | 0.00 | 0.00 | 0.00 | 59 | 1013.2 |
| 20260507150034 | 20 | 22 | 17.7 | 22.5 | 0.00 | 0.00 | 0.00 | 59 | 1013.1 |
| 20260507145528 | 20 | 71 | 12.9 | 20.9 | 0.00 | 0.00 | 0.00 | 58 | 1013.2 |
| 20260507145029 | 20 | 15 | 14.5 | 20.9 | 0.00 | 0.00 | 0.00 | 59 | 1013.2 |
| 20260507144528 | 20 | 53 | 12.9 | 25.7 | 0.00 | 0.00 | 0.00 | 58 | 1013.2 |
| 20260507144030 | 20 | 59 | 11.3 | 22.5 | 0.00 | 0.00 | 0.00 | 58 | 1013.1 |
| 20260507143035 | 20 | 7 | 14.5 | 24.1 | 0.00 | 0.00 | 0.00 | 58 | 1013.3 |
| 20260507142030 | 20 | 3 | 12.9 | 16.1 | 0.00 | 0.00 | 0.00 | 57 | 1013.3 |
| 20260507141529 | 20 | 68 | 9.7 | 20.9 | 0.00 | 0.00 | 0.00 | 56 | 1013.3 |
| 20260507141030 | 21 | 46 | 9.7 | 20.9 | 0.00 | 0.00 | 0.00 | 57 | 1013.2 |
| 20260507140031 | 20 | 35 | 8.0 | 14.5 | 0.00 | 0.00 | 0.00 | 56 | 1013.3 |
| 20260507135531 | 20 | 47 | 9.7 | 11.3 | 0.00 | 0.00 | 0.00 | 56 | 1013.4 |
| 20260507134528 | 21 | 69 | 14.5 | 20.9 | 0.00 | 0.00 | 0.00 | 56 | 1013.4 |
| 20260507134030 | 21 | 90 | 4.8 | 16.1 | 0.00 | 0.00 | 0.00 | 56 | 1013.4 |
| 20260507133531 | 20 | 30 | 8.0 | 16.1 | 0.00 | 0.00 | 0.00 | 56 | 1013.4 |
| 20260507133033 | 20 | 19 | 11.3 | 20.9 | 0.00 | 0.00 | 0.00 | 56 | 1013.4 |
| 20260507132528 | 20 | 49 | 9.7 | 24.1 | 0.00 | 0.00 | 0.00 | 56 | 1013.5 |
| 20260507131536 | 21 | 49 | 8.0 | 19.3 | 0.00 | 0.00 | 0.00 | 56 | 1013.5 |
| 20260507131031 | 21 | 69 | 12.9 | 14.5 | 0.00 | 0.00 | 0.00 | 55 | 1013.4 |
| 20260507130528 | 21 | 22 | 9.7 | 19.3 | 0.00 | 0.00 | 0.00 | 55 | 1013.4 |
| 20260507130029 | 21 | 45 | 14.5 | 24.1 | 0.00 | 0.00 | 0.00 | 55 | 1013.4 |
| 20260507125030 | 21 | 33 | 9.7 | 19.3 | 0.00 | 0.00 | 0.00 | 55 | 1013.4 |
| 20260507124528 | 21 | 19 | 9.7 | 20.9 | 0.00 | 0.00 | 0.00 | 55 | 1013.4 |
| 20260507124033 | 21 | 47 | 9.7 | 22.5 | 0.00 | 0.00 | 0.00 | 55 | 1013.4 |
| 20260507123532 | 21 | 32 | 9.7 | 19.3 | 0.00 | 0.00 | 0.00 | 55 | 1013.4 |
| 20260507123039 | 21 | 46 | 14.5 | 14.5 | 0.00 | 0.00 | 0.00 | 56 | 1013.4 |
| 20260507122030 | 21 | 59 | 9.7 | 16.1 | 0.00 | 0.00 | 0.00 | 56 | 1013.5 |
| 20260507121528 | 21 | 36 | 11.3 | 16.1 | 0.00 | 0.00 | 0.00 | 56 | 1013.4 |
| 20260507121031 | 20 | 21 | 11.3 | 19.3 | 0.00 | 0.00 | 0.00 | 55 | 1013.5 |
| 20260507120531 | 20 | 4 | 9.7 | 24.1 | 0.00 | 0.00 | 0.00 | 55 | 1013.6 |
| 20260507115528 | 21 | 29 | 16.1 | 22.5 | 0.00 | 0.00 | 0.00 | 56 | 1013.5 |
| 20260507115030 | 20 | 2 | 16.1 | 22.5 | 0.00 | 0.00 | 0.00 | 55 | 1013.6 |
| 20260507114030 | 20 | 40 | 12.9 | 22.5 | 0.00 | 0.00 | 0.00 | 55 | 1013.6 |
| 20260507113528 | 21 | 69 | 12.9 | 24.1 | 0.00 | 0.00 | 0.00 | 54 | 1013.5 |
| 20260507113030 | 21 | 40 | 9.7 | 19.3 | 0.00 | 0.00 | 0.00 | 54 | 1013.7 |
| 20260507112029 | 21 | 45 | 16.1 | 19.3 | 0.00 | 0.00 | 0.00 | 55 | 1013.6 |
| 20260507111538 | 21 | 45 | 11.3 | 19.3 | 0.00 | 0.00 | 0.00 | 54 | 1013.7 |
| 20260507111033 | 21 | 19 | 9.7 | 14.5 | 0.00 | 0.00 | 0.00 | 54 | 1013.6 |
| 20260507110530 | 21 | 47 | 9.7 | 22.5 | 0.00 | 0.00 | 0.00 | 54 | 1013.7 |
| 20260507110030 | 21 | 45 | 9.7 | 19.3 | 0.00 | 0.00 | 0.00 | 54 | 1013.8 |
| 20260507105529 | 21 | 29 | 9.7 | 19.3 | 0.00 | 0.00 | 0.00 | 54 | 1013.7 |
| 20260507105029 | 21 | 16 | 9.7 | 20.9 | 0.00 | 0.00 | 0.00 | 54 | 1013.8 |
| 20260507104534 | 21 | 6 | 11.3 | 20.9 | 0.00 | 0.00 | 0.00 | 54 | 1013.8 |
| 20260507104030 | 21 | 16 | 14.5 | 25.7 | 0.00 | 0.00 | 0.00 | 53 | 1013.8 |
| 20260507103529 | 21 | 16 | 16.1 | 25.7 | 0.00 | 0.00 | 0.00 | 53 | 1013.8 |
| 20260507102528 | 21 | 356 | 4.8 | 12.9 | 0.00 | 0.00 | 0.00 | 53 | 1013.6 |
| 20260507102031 | 21 | 357 | 8.0 | 16.1 | 0.00 | 0.00 | 0.00 | 54 | 1013.7 |
| 20260507101528 | 22 | 45 | 8.0 | 9.7 | 0.00 | 0.00 | 0.00 | 53 | 1013.8 |
| 20260507101030 | 22 | 329 | 9.7 | 14.5 | 0.00 | 0.00 | 0.00 | 53 | 1013.8 |
| 20260507100529 | 22 | 324 | 9.7 | 19.3 | 0.00 | 0.00 | 0.00 | 53 | 1013.8 |
| 20260507095528 | 22 | 24 | 8.0 | 14.5 | 0.00 | 0.00 | 0.00 | 54 | 1013.8 |
| 20260507095030 | 22 | 60 | 8.0 | 22.5 | 0.00 | 0.00 | 0.00 | 54 | 1013.7 |
| 20260507094528 | 22 | 29 | 9.7 | 19.3 | 0.00 | 0.00 | 0.00 | 54 | 1013.8 |
| 20260507094030 | 22 | 358 | 9.7 | 16.1 | 0.00 | 0.00 | 0.00 | 54 | 1013.7 |
| 20260507093531 | 22 | 22 | 0.0 | 11.3 | 0.00 | 0.00 | 0.00 | 54 | 1013.6 |
| 20260507093030 | 22 | 288 | 0.0 | 4.8 | 0.00 | 0.00 | 0.00 | 54 | 1013.7 |
| 20260507092528 | 22 | 222 | 0.0 | 0.0 | 0.00 | 0.00 | 0.00 | 54 | 1013.7 |
| 20260507092030 | 22 | 266 | 1.6 | 9.7 | 0.00 | 0.00 | 0.00 | 53 | 1013.5 |
| 20260507091528 | 22 | 202 | 1.6 | 12.9 | 0.00 | 0.00 | 0.00 | 54 | 1013.5 |
| 20260507091030 | 22 | 310 | 8.0 | 16.1 | 0.00 | 0.00 | 0.00 | 54 | 1013.6 |
| 20260507090528 | 22 | 346 | 8.0 | 16.1 | 0.00 | 0.00 | 0.00 | 54 | 1013.5 |
| 20260507090030 | 22 | 274 | 3.2 | 9.7 | 0.00 | 0.00 | 0.00 | 55 | 1013.5 |
| 20260507085529 | 22 | 278 | 0.0 | 9.7 | 0.00 | 0.00 | 0.00 | 55 | 1013.6 |
| 20260507084529 | 22 | 319 | 1.6 | 8.0 | 0.00 | 0.00 | 0.00 | 56 | 1013.6 |
| 20260507083529 | 21 | 338 | 1.6 | 4.8 | 0.00 | 0.00 | 0.00 | 56 | 1013.5 |
| 20260507083033 | 21 | 319 | 3.2 | 4.8 | 0.00 | 0.00 | 0.00 | 56 | 1013.4 |
| 20260507082033 | 21 | 254 | 1.6 | 12.9 | 0.00 | 0.00 | 0.00 | 56 | 1013.3 |
| 20260507081528 | 21 | 323 | 4.8 | 8.0 | 0.00 | 0.00 | 0.00 | 57 | 1013.4 |
| 20260507081030 | 21 | 221 | 4.8 | 9.7 | 0.00 | 0.00 | 0.00 | 57 | 1013.3 |
| 20260507080528 | 21 | 278 | 3.2 | 9.7 | 0.00 | 0.00 | 0.00 | 57 | 1013.3 |
| 20260507075529 | 21 | 291 | 1.6 | 14.5 | 0.00 | 0.00 | 0.00 | 59 | 1013.3 |
| 20260507075033 | 20 | 265 | 3.2 | 8.0 | 0.00 | 0.00 | 0.00 | 61 | 1013.3 |
| 20260507074529 | 20 | 188 | 6.4 | 11.3 | 0.00 | 0.00 | 0.00 | 62 | 1013.3 |
| 20260507074030 | 20 | 144 | 1.6 | 3.2 | 0.00 | 0.00 | 0.00 | 63 | 1013.2 |
| 20260507073528 | 20 | 6 | 0.0 | 1.6 | 0.00 | 0.00 | 0.00 | 64 | 1013.3 |
| 20260507073030 | 19 | 208 | 3.2 | 4.8 | 0.00 | 0.00 | 0.00 | 64 | 1013.3 |
| 20260507072528 | 19 | 244 | 3.2 | 8.0 | 0.00 | 0.00 | 0.00 | 65 | 1013.4 |
| 20260507070528 | 18 | 144 | 1.6 | 4.8 | 0.00 | 0.00 | 0.00 | 72 | 1013.4 |
| 20260507070030 | 17 | 315 | 1.6 | 4.8 | 0.00 | 0.00 | 0.00 | 74 | 1013.3 |
| 20260507065537 | 17 | 237 | 3.2 | 11.3 | 0.00 | 0.00 | 0.00 | 75 | 1013.3 |
| 20260507065033 | 17 | 91 | 0.0 | 1.6 | 0.00 | 0.00 | 0.00 | 77 | 1013.3 |
| 20260507064030 | 16 | 78 | 0.0 | 4.8 | 0.00 | 0.00 | 0.00 | 79 | 1013.2 |
| 20260507063528 | 16 | 72 | 0.0 | 0.0 | 0.00 | 0.00 | 0.00 | 79 | 1013.3 |
| 20260507063030 | 15 | 354 | 0.0 | 0.0 | 0.00 | 0.00 | 0.00 | 78 | 1013.2 |
| 20260507062029 | 15 | 171 | 1.6 | 4.8 | 0.00 | 0.00 | 0.00 | 79 | 1013.2 |
| 20260507061528 | 15 | 316 | 0.0 | 0.0 | 0.00 | 0.00 | 0.00 | 80 | 1013.3 |
| 20260507061031 | 15 | 315 | 157.7 | 177.0 | 0.00 | 0.00 | 0.00 | 80 | 1013.2 |
| 20260507055031 | 14 | 169 | 177.0 | 177.0 | 0.00 | 0.00 | 0.00 | 81 | 1013.0 |
| 20260507054531 | 14 | 172 | 177.0 | 177.0 | 0.00 | 0.00 | 0.00 | 81 | 1013.0 |
| 20260507054031 | 14 | 186 | 177.0 | 177.0 | 0.00 | 0.00 | 0.00 | 81 | 1013.1 |
| 20260507053529 | 14 | 310 | 177.0 | 177.0 | 0.00 | 0.00 | 0.00 | 81 | 1012.9 |
| 20260507053030 | 14 | 299 | 177.0 | 177.0 | 0.00 | 0.00 | 0.00 | 81 | 1013.0 |
| 20260507052529 | 14 | 295 | 177.0 | 177.0 | 0.00 | 0.00 | 0.00 | 81 | 1012.9 |
| 20260507051529 | 14 | 316 | 177.0 | 177.0 | 0.00 | 0.00 | 0.00 | 81 | 1012.7 |
| 20260507050529 | 14 | 232 | 177.0 | 177.0 | 0.00 | 0.00 | 0.00 | 82 | 1012.8 |
| 20260507050030 | 14 | 304 | 177.0 | 177.0 | 0.00 | 0.00 | 0.00 | 82 | 1012.7 |
| 20260507045528 | 14 | 202 | 177.0 | 177.0 | 0.00 | 0.00 | 0.00 | 82 | 1012.7 |
| 20260507044529 | 14 | 263 | 177.0 | 177.0 | 0.00 | 0.05 | 0.00 | 83 | 1012.6 |
| 20260507044030 | 14 | 269 | 177.0 | 177.0 | 0.00 | 0.05 | 0.00 | 83 | 1012.4 |
| 20260507043529 | 14 | 292 | 177.0 | 177.0 | 0.00 | 0.05 | 0.00 | 83 | 1012.3 |
| 20260507043031 | 14 | 315 | 177.0 | 177.0 | 0.00 | 0.05 | 0.00 | 83 | 1012.3 |
| 20260507042031 | 14 | 9 | 177.0 | 177.0 | 0.00 | 0.05 | 0.00 | 82 | 1012.3 |
| 20260507041529 | 14 | 287 | 177.0 | 177.0 | 0.00 | 0.05 | 0.00 | 83 | 1012.3 |
| 20260507041030 | 14 | 283 | 173.8 | 177.0 | 0.00 | 0.05 | 0.00 | 83 | 1012.1 |
| 20260507040529 | 13 | 311 | 59.5 | 106.2 | 0.00 | 0.05 | 0.00 | 82 | 1012.0 |
| 20260507040030 | 13 | 313 | 59.5 | 106.2 | 0.00 | 0.05 | 0.00 | 82 | 1012.0 |
| 20260507035533 | 13 | 315 | 4.8 | 75.6 | 0.00 | 0.05 | 0.00 | 82 | 1012.1 |
| 20260507035034 | 13 | 294 | 75.6 | 75.6 | 0.00 | 0.05 | 0.00 | 82 | 1012.0 |
| 20260507034532 | 13 | 20 | 0.0 | 0.0 | 0.00 | 0.05 | 0.00 | 82 | 1012.0 |
| 20260507034036 | 13 | 318 | 78.9 | 109.4 | 0.00 | 0.05 | 0.00 | 82 | 1012.0 |
| 20260507033529 | 13 | 315 | 96.6 | 109.4 | 0.00 | 0.05 | 0.00 | 82 | 1012.0 |
| 20260507033031 | 14 | 314 | 138.4 | 177.0 | 0.00 | 0.05 | 0.00 | 81 | 1011.9 |
| 20260507032530 | 14 | 90 | 106.2 | 109.4 | 0.00 | 0.05 | 0.00 | 81 | 1012.0 |
| 20260507032032 | 14 | 180 | 109.4 | 177.0 | 0.00 | 0.05 | 0.00 | 81 | 1011.9 |
| 20260507031530 | 14 | 311 | 70.8 | 109.4 | 0.00 | 0.05 | 0.00 | 81 | 1011.8 |
| 20260507031030 | 14 | 158 | 0.0 | 20.9 | 0.00 | 0.05 | 0.00 | 81 | 1012.0 |
| 20260507030530 | 14 | 271 | 0.0 | 0.0 | 0.00 | 0.05 | 0.00 | 81 | 1012.0 |
| 20260507030030 | 14 | 263 | 1.6 | 41.8 | 0.00 | 0.05 | 0.00 | 80 | 1011.9 |
| 20260507025529 | 15 | 180 | 4.8 | 41.8 | 0.00 | 0.05 | 0.00 | 80 | 1012.0 |
| 20260507025031 | 15 | 187 | 0.0 | 41.8 | 0.00 | 0.05 | 0.00 | 80 | 1012.0 |
| 20260507024529 | 15 | 283 | 0.0 | 41.8 | 0.00 | 0.05 | 0.00 | 80 | 1012.0 |
| 20260507024032 | 15 | 220 | 4.8 | 41.8 | 0.00 | 0.05 | 0.00 | 80 | 1012.0 |
| 20260507023534 | 15 | 322 | 16.1 | 41.8 | 0.00 | 0.05 | 0.00 | 80 | 1011.9 |
| 20260507023030 | 15 | 316 | 19.3 | 41.8 | 0.00 | 0.05 | 0.00 | 80 | 1011.7 |
| 20260507022529 | 15 | 292 | 0.0 | 0.0 | 0.00 | 0.05 | 0.00 | 80 | 1011.8 |
| 20260507022039 | 15 | 316 | 0.0 | 0.0 | 0.00 | 0.05 | 0.00 | 80 | 1011.9 |
| 20260507021530 | 15 | 135 | 0.0 | 0.0 | 0.00 | 0.05 | 0.00 | 79 | 1012.0 |
| 20260507021030 | 15 | 313 | 1.6 | 3.2 | 0.00 | 0.05 | 0.00 | 79 | 1012.0 |
| 20260507020529 | 15 | 349 | 0.0 | 3.2 | 0.00 | 0.05 | 0.00 | 79 | 1012.0 |
| 20260507020031 | 15 | 316 | 1.6 | 1.6 | 0.00 | 0.05 | 0.00 | 79 | 1012.0 |
| 20260507015529 | 15 | 324 | 0.0 | 0.0 | 0.00 | 0.05 | 0.00 | 79 | 1011.9 |
| 20260507015031 | 15 | 180 | 1.6 | 1.6 | 0.00 | 0.05 | 0.00 | 78 | 1011.9 |
| 20260507014030 | 15 | 308 | 0.0 | 3.2 | 0.00 | 0.05 | 0.00 | 78 | 1012.0 |
| 20260507013529 | 15 | 326 | 0.0 | 3.2 | 0.00 | 0.05 | 0.00 | 78 | 1012.0 |
| 20260507013030 | 15 | 173 | 1.6 | 3.2 | 0.00 | 0.05 | 0.00 | 78 | 1011.9 |
| 20260507012529 | 15 | 303 | 0.0 | 0.0 | 0.00 | 0.05 | 0.00 | 78 | 1012.1 |
| 20260507012030 | 15 | 303 | 0.0 | 0.0 | 0.00 | 0.05 | 0.00 | 77 | 1011.8 |
| 20260507011529 | 15 | 334 | 0.0 | 1.6 | 0.00 | 0.05 | 0.00 | 77 | 1011.8 |
| 20260507011031 | 15 | 89 | 3.2 | 3.2 | 0.00 | 0.05 | 0.00 | 77 | 1011.9 |
| 20260507010529 | 15 | 40 | 0.0 | 3.2 | 0.00 | 0.05 | 0.00 | 77 | 1011.8 |
| 20260507010031 | 16 | 319 | 0.0 | 0.0 | 0.00 | 0.05 | 0.00 | 76 | 1011.8 |
| 20260507005030 | 16 | 334 | 0.0 | 0.0 | 0.00 | 0.05 | 0.00 | 76 | 1012.0 |